Time;durP1;ratioP1;P1;durP2;ratioP2;P2;SDS_P1;SDS_P2;PMS_P1;PMS_P2;Temp;Humidity;BMP_temperature;BMP_pressure;BME280_temperature;BME280_humidity;BME280_pressure;Samples;Min_cycle;Max_cycle;Signal;HPM_P1;HPM_P2
2023/07/17 00:00:17;;;;;;;5.43;1.40;;;14.80;99.90;;;;;;5132984;27;20471;-47
2023/07/17 00:02:43;;;;;;;5.20;1.20;;;14.70;99.90;;;;;;5133059;27;20033;-47
2023/07/17 00:05:10;;;;;;;6.57;1.92;;;14.70;99.90;;;;;;5132887;27;20051;-55
2023/07/17 00:07:37;;;;;;;4.70;1.83;;;14.70;99.90;;;;;;5132959;27;20487;-47
2023/07/17 00:10:06;;;;;;;4.63;1.77;;;14.70;99.90;;;;;;5132765;27;20035;-51
2023/07/17 00:12:32;;;;;;;7.32;1.75;;;14.70;99.90;;;;;;5132744;27;20533;-46
2023/07/17 00:14:58;;;;;;;10.38;1.88;;;14.70;99.90;;;;;;5132790;27;20055;-47
2023/07/17 00:17:23;;;;;;;4.28;1.48;;;14.60;99.90;;;;;;5132477;27;20072;-53
2023/07/17 00:19:54;;;;;;;4.18;1.60;;;14.70;99.90;;;;;;5132598;27;20027;-52
2023/07/17 00:22:21;;;;;;;3.00;1.10;;;14.60;99.90;;;;;;5132285;27;20027;-46
2023/07/17 00:24:46;;;;;;;5.55;1.63;;;14.60;99.90;;;;;;5132511;27;20397;-49
2023/07/17 00:27:12;;;;;;;3.35;1.48;;;14.60;99.90;;;;;;5132339;27;20464;-47
2023/07/17 00:29:40;;;;;;;6.90;1.67;;;14.50;99.90;;;;;;5131201;27;20502;-46
2023/07/17 00:32:06;;;;;;;5.90;1.58;;;14.50;99.90;;;;;;5132353;27;20060;-53
2023/07/17 00:34:32;;;;;;;5.25;1.15;;;14.50;99.90;;;;;;5132399;27;20084;-51
2023/07/17 00:36:58;;;;;;;4.78;1.50;;;14.50;99.90;;;;;;5132221;27;20053;-49
2023/07/17 00:39:24;;;;;;;4.05;1.45;;;14.50;99.90;;;;;;5132332;27;20042;-52
2023/07/17 00:41:51;;;;;;;5.50;1.30;;;14.50;99.90;;;;;;5132189;27;20027;-52
2023/07/17 00:44:17;;;;;;;3.72;1.55;;;14.50;99.90;;;;;;5132089;27;20019;-49
2023/07/17 00:46:43;;;;;;;6.72;1.48;;;14.40;99.90;;;;;;5131899;27;20034;-51
2023/07/17 00:49:10;;;;;;;5.38;1.40;;;14.40;99.90;;;;;;5131677;27;20023;-54
2023/07/17 00:51:38;;;;;;;2.30;1.20;;;14.40;99.90;;;;;;5131948;27;20027;-47
2023/07/17 00:54:05;;;;;;;3.83;1.30;;;14.30;99.90;;;;;;5132019;27;20090;-49
2023/07/17 00:56:31;;;;;;;5.18;1.52;;;14.20;99.90;;;;;;5131997;27;20155;-44
2023/07/17 00:58:57;;;;;;;2.42;1.20;;;14.20;99.90;;;;;;5131996;27;20498;-48
2023/07/17 01:01:23;;;;;;;3.65;1.40;;;14.20;99.90;;;;;;5131883;27;20102;-52
2023/07/17 01:03:53;;;;;;;3.47;1.20;;;14.20;99.90;;;;;;5131879;27;20054;-49
2023/07/17 01:06:19;;;;;;;6.55;1.58;;;14.10;99.90;;;;;;5131727;27;20028;-49
2023/07/17 01:08:45;;;;;;;3.38;1.27;;;14.10;99.90;;;;;;5131722;27;20026;-45
2023/07/17 01:11:11;;;;;;;3.63;1.10;;;14.10;99.90;;;;;;5131745;27;20027;-51
2023/07/17 01:13:49;;;;;;;4.85;1.73;;;14.10;99.90;;;;;;5131776;27;20027;-53
2023/07/17 01:16:14;;;;;;;4.18;1.50;;;14.10;99.90;;;;;;5131784;27;20080;-51
2023/07/17 01:18:41;;;;;;;5.90;1.60;;;14.10;99.90;;;;;;5131375;27;20035;-45
2023/07/17 01:21:09;;;;;;;2.03;1.05;;;14.00;99.90;;;;;;5131952;27;20152;-50
2023/07/17 01:23:35;;;;;;;6.43;1.30;;;14.00;99.90;;;;;;5131677;27;20110;-48
2023/07/17 01:26:10;;;;;;;6.75;1.73;;;13.90;99.90;;;;;;5131712;27;20395;-45
2023/07/17 01:28:35;;;;;;;5.00;1.52;;;13.90;99.90;;;;;;5131705;27;20425;-52
2023/07/17 01:31:01;;;;;;;5.15;1.70;;;13.90;99.90;;;;;;5131378;27;20544;-47
2023/07/17 01:33:27;;;;;;;6.35;1.40;;;13.90;99.90;;;;;;5130329;27;20023;-49
2023/07/17 01:35:52;;;;;;;4.53;1.52;;;13.80;99.90;;;;;;5131469;27;20007;-49
2023/07/17 01:38:18;;;;;;;2.45;1.30;;;13.90;99.90;;;;;;5131327;27;20506;-49
2023/07/17 01:40:43;;;;;;;2.80;1.05;;;13.90;99.90;;;;;;5131379;27;20046;-46
2023/07/17 01:43:09;;;;;;;4.80;1.63;;;13.80;99.90;;;;;;5131495;27;20031;-46
2023/07/17 01:45:35;;;;;;;4.45;1.40;;;13.90;99.90;;;;;;5131529;27;20031;-45
2023/07/17 01:48:00;;;;;;;5.28;1.67;;;13.90;99.90;;;;;;5131245;27;20072;-49
2023/07/17 01:50:26;;;;;;;3.58;1.10;;;13.90;99.90;;;;;;5131419;27;20484;-47
2023/07/17 01:52:51;;;;;;;2.35;1.30;;;13.90;99.90;;;;;;5131367;27;20031;-47
2023/07/17 01:55:17;;;;;;;3.47;1.25;;;14.00;99.90;;;;;;5131030;27;20529;-48
2023/07/17 01:57:42;;;;;;;4.28;1.38;;;13.90;99.90;;;;;;5131312;27;20041;-48
2023/07/17 02:00:12;;;;;;;4.82;1.45;;;13.90;99.90;;;;;;5142816;27;20083;-49
2023/07/17 02:02:38;;;;;;;2.78;1.00;;;14.00;99.90;;;;;;5135650;27;20038;-48
2023/07/17 02:05:04;;;;;;;2.33;1.17;;;14.00;99.90;;;;;;5135145;27;20020;-45
2023/07/17 02:07:30;;;;;;;3.92;1.67;;;14.00;99.90;;;;;;5135073;27;20023;-52
2023/07/17 02:09:55;;;;;;;3.15;0.93;;;14.00;99.90;;;;;;5135201;27;20101;-52
2023/07/17 02:12:21;;;;;;;7.47;1.95;;;14.00;99.90;;;;;;5134913;27;20066;-49
2023/07/17 02:14:46;;;;;;;3.65;1.40;;;14.00;99.90;;;;;;5135156;27;20376;-49
2023/07/17 02:17:12;;;;;;;3.63;1.55;;;13.90;99.90;;;;;;5134791;27;20148;-53
2023/07/17 02:19:38;;;;;;;6.18;1.33;;;13.90;99.90;;;;;;5135022;27;20479;-48
2023/07/17 02:22:04;;;;;;;4.75;1.27;;;13.90;99.90;;;;;;5135003;27;20023;-46
2023/07/17 02:24:30;;;;;;;6.40;1.20;;;13.90;99.90;;;;;;5134746;27;20030;-52
2023/07/17 02:26:58;;;;;;;7.57;1.42;;;13.90;99.90;;;;;;5134875;27;20405;-48
2023/07/17 02:29:24;;;;;;;5.00;1.37;;;13.90;99.90;;;;;;5134711;27;20088;-54
2023/07/17 02:31:50;;;;;;;2.15;1.23;;;13.80;99.90;;;;;;5134691;27;20479;-52
2023/07/17 02:34:16;;;;;;;2.75;1.13;;;13.90;99.90;;;;;;5134650;27;20050;-50
2023/07/17 02:36:42;;;;;;;5.28;1.77;;;13.90;99.90;;;;;;5134509;27;20018;-49
2023/07/17 02:39:08;;;;;;;3.58;1.30;;;14.00;99.90;;;;;;5134419;27;20062;-54
2023/07/17 02:41:34;;;;;;;3.25;1.33;;;14.00;99.90;;;;;;5134474;27;20464;-48
2023/07/17 02:44:00;;;;;;;2.55;1.17;;;14.00;99.90;;;;;;5134305;27;20035;-48
2023/07/17 02:46:26;;;;;;;6.18;1.40;;;14.00;99.90;;;;;;5133060;27;20421;-50
2023/07/17 02:48:52;;;;;;;4.13;1.42;;;14.00;99.90;;;;;;5134106;27;20050;-47
2023/07/17 02:51:17;;;;;;;4.18;1.30;;;14.00;99.90;;;;;;5134379;27;20104;-49
2023/07/17 02:53:43;;;;;;;4.05;1.20;;;14.00;99.90;;;;;;5134414;27;20403;-55
2023/07/17 02:56:08;;;;;;;7.32;1.83;;;14.00;99.90;;;;;;5134284;27;20043;-57
2023/07/17 02:58:39;;;;;;;3.50;1.33;;;14.00;99.90;;;;;;5134054;27;20167;-57
2023/07/17 03:01:06;;;;;;;3.28;1.35;;;14.00;99.90;;;;;;5134273;27;20016;-54
2023/07/17 03:03:31;;;;;;;4.35;1.67;;;14.10;99.90;;;;;;5134099;27;20019;-52
2023/07/17 03:05:57;;;;;;;3.30;1.25;;;14.00;99.90;;;;;;5133844;27;20046;-56
2023/07/17 03:08:23;;;;;;;6.00;1.90;;;14.00;99.90;;;;;;5134127;27;20027;-46
2023/07/17 03:10:48;;;;;;;4.45;1.40;;;14.00;99.90;;;;;;5133643;27;20052;-51
2023/07/17 03:13:14;;;;;;;3.85;1.50;;;14.00;99.90;;;;;;5134018;27;20410;-49
2023/07/17 03:15:39;;;;;;;3.97;1.50;;;13.90;99.90;;;;;;5133984;27;20080;-46
2023/07/17 03:18:05;;;;;;;4.30;1.50;;;13.90;99.90;;;;;;5133784;27;20027;-48
2023/07/17 03:20:31;;;;;;;2.70;1.05;;;13.80;99.90;;;;;;5133983;27;20023;-43
2023/07/17 03:22:56;;;;;;;5.80;1.67;;;13.80;99.90;;;;;;5133637;27;20039;-48
2023/07/17 03:25:22;;;;;;;4.88;1.45;;;13.70;99.90;;;;;;5133545;27;20030;-52
2023/07/17 03:27:47;;;;;;;8.02;1.73;;;13.70;99.90;;;;;;5133563;27;20069;-52
2023/07/17 03:30:13;;;;;;;4.15;1.42;;;13.60;99.90;;;;;;5133972;27;20110;-55
2023/07/17 03:32:39;;;;;;;3.33;1.38;;;13.70;99.90;;;;;;5133512;27;20023;-47
2023/07/17 03:35:05;;;;;;;4.55;1.63;;;13.60;99.90;;;;;;5133803;27;20027;-48
2023/07/17 03:37:31;;;;;;;4.22;1.60;;;13.60;99.90;;;;;;5133405;27;20019;-46
2023/07/17 03:39:56;;;;;;;4.55;1.77;;;13.60;99.90;;;;;;5133055;27;20364;-50
2023/07/17 03:42:22;;;;;;;5.75;1.77;;;13.60;99.90;;;;;;5133453;27;20591;-47
2023/07/17 03:44:48;;;;;;;4.53;1.67;;;13.60;99.90;;;;;;5133190;27;20034;-54
2023/07/17 03:47:13;;;;;;;2.65;1.45;;;13.60;99.90;;;;;;5133415;27;20558;-58
2023/07/17 03:49:39;;;;;;;7.72;2.22;;;13.60;99.90;;;;;;5133132;27;20038;-53
2023/07/17 03:52:05;;;;;;;5.22;1.60;;;13.50;99.90;;;;;;5133322;27;20042;-43
2023/07/17 03:54:31;;;;;;;7.22;1.60;;;13.50;99.90;;;;;;5132955;27;20033;-42
2023/07/17 03:56:56;;;;;;;6.28;1.90;;;13.50;99.90;;;;;;5132874;27;20031;-48
2023/07/17 03:59:24;;;;;;;10.57;2.15;;;13.50;99.90;;;;;;5133228;27;20042;-51
2023/07/17 04:01:50;;;;;;;5.15;1.27;;;13.40;99.90;;;;;;5131770;27;20020;-44
2023/07/17 04:04:15;;;;;;;4.88;1.80;;;13.40;99.90;;;;;;5133077;27;20038;-48
2023/07/17 04:06:41;;;;;;;4.80;1.42;;;13.40;99.90;;;;;;5133086;27;20023;-53
2023/07/17 04:09:06;;;;;;;5.80;1.80;;;13.40;99.90;;;;;;5132797;27;20047;-53
2023/07/17 04:11:32;;;;;;;5.57;1.92;;;13.40;99.90;;;;;;5132824;27;20023;-54
2023/07/17 04:13:58;;;;;;;6.45;1.50;;;13.40;99.90;;;;;;5132502;27;20072;-49
2023/07/17 04:16:26;;;;;;;5.90;1.48;;;13.40;99.90;;;;;;5132718;27;20038;-46
2023/07/17 04:18:52;;;;;;;7.43;1.83;;;13.40;99.90;;;;;;5131102;27;20088;-52
2023/07/17 04:21:18;;;;;;;4.90;1.70;;;13.50;99.90;;;;;;5132797;27;20019;-52
2023/07/17 04:23:48;;;;;;;7.32;2.28;;;13.50;99.90;;;;;;5131812;27;20054;-45
2023/07/17 04:26:14;;;;;;;8.73;2.08;;;13.50;99.90;;;;;;5132453;27;20072;-55
2023/07/17 04:28:40;;;;;;;6.10;2.00;;;13.50;99.90;;;;;;5132449;27;20417;-50
2023/07/17 04:31:05;;;;;;;5.05;2.35;;;13.60;99.90;;;;;;5131748;27;20019;-46
2023/07/17 04:33:32;;;;;;;4.90;2.03;;;13.60;99.90;;;;;;5132492;27;20064;-50
2023/07/17 04:35:57;;;;;;;6.20;2.03;;;13.60;99.90;;;;;;5132219;27;20483;-52
2023/07/17 04:38:23;;;;;;;4.32;1.90;;;13.60;99.90;;;;;;5132248;27;20046;-56
2023/07/17 04:40:48;;;;;;;8.00;2.20;;;13.60;99.90;;;;;;5132162;27;20045;-55
2023/07/17 04:43:14;;;;;;;5.40;2.03;;;13.70;99.90;;;;;;5132437;27;20039;-45
2023/07/17 04:45:43;;;;;;;4.97;1.85;;;13.70;99.90;;;;;;5132160;27;20027;-56
2023/07/17 04:48:09;;;;;;;6.05;2.20;;;13.70;99.90;;;;;;5132183;27;20023;-53
2023/07/17 04:50:34;;;;;;;6.90;2.63;;;13.80;99.90;;;;;;5132241;27;20030;-59
2023/07/17 04:53:00;;;;;;;4.75;2.10;;;13.90;99.90;;;;;;5132051;27;20034;-49
2023/07/17 04:55:26;;;;;;;4.53;1.90;;;13.90;99.90;;;;;;5131778;27;20453;-50
2023/07/17 04:57:51;;;;;;;5.70;1.92;;;14.00;99.90;;;;;;5130517;27;20114;-48
2023/07/17 05:00:17;;;;;;;6.30;2.30;;;14.10;99.90;;;;;;5131791;27;20019;-47
2023/07/17 05:02:43;;;;;;;10.02;2.40;;;14.20;99.90;;;;;;5131706;27;20106;-48
2023/07/17 05:05:09;;;;;;;5.20;2.10;;;14.30;99.90;;;;;;5130365;27;20114;-43
2023/07/17 05:07:35;;;;;;;5.70;2.65;;;14.40;99.90;;;;;;5131859;27;20023;-43
2023/07/17 05:10:01;;;;;;;7.40;2.50;;;14.50;99.90;;;;;;5131610;27;20023;-43
2023/07/17 05:12:27;;;;;;;5.07;2.17;;;14.70;99.90;;;;;;5135910;27;20213;-54
2023/07/17 05:14:53;;;;;;;4.28;2.08;;;14.70;99.90;;;;;;5131629;27;20432;-43
2023/07/17 05:17:19;;;;;;;6.57;2.22;;;14.80;99.90;;;;;;5131471;27;20031;-50
2023/07/17 05:19:44;;;;;;;7.13;2.90;;;14.80;99.90;;;;;;5131596;27;20475;-54
2023/07/17 05:22:10;;;;;;;7.15;2.40;;;14.80;99.90;;;;;;5131413;27;20087;-54
2023/07/17 05:24:36;;;;;;;4.88;1.73;;;14.80;99.90;;;;;;5131463;27;20494;-46
2023/07/17 05:27:02;;;;;;;6.57;2.22;;;14.80;99.90;;;;;;5131493;27;20288;-50
2023/07/17 05:29:28;;;;;;;6.70;2.42;;;14.80;99.90;;;;;;5131335;27;20490;-45
2023/07/17 05:31:53;;;;;;;7.38;1.95;;;14.90;99.90;;;;;;5131305;27;20488;-44
2023/07/17 05:34:19;;;;;;;5.15;2.33;;;14.90;99.90;;;;;;5131327;27;20120;-50
2023/07/17 05:36:44;;;;;;;8.75;2.90;;;15.00;99.90;;;;;;5131455;27;20026;-44
2023/07/17 05:39:10;;;;;;;9.68;2.72;;;15.10;99.90;;;;;;5131178;27;20395;-43
2023/07/17 05:41:35;;;;;;;6.05;2.13;;;15.20;99.90;;;;;;5130253;27;20089;-45
2023/07/17 05:44:01;;;;;;;6.43;2.50;;;15.30;99.90;;;;;;5129850;27;20031;-46
2023/07/17 05:46:27;;;;;;;7.20;2.55;;;15.40;99.90;;;;;;5131309;27;20118;-45
2023/07/17 05:48:52;;;;;;;5.78;2.55;;;15.40;99.90;;;;;;5131181;27;20023;-48
2023/07/17 05:51:18;;;;;;;7.43;2.58;;;15.40;99.90;;;;;;5131150;27;20117;-43
2023/07/17 05:53:44;;;;;;;7.93;2.20;;;15.50;99.90;;;;;;5131041;27;20023;-47
2023/07/17 05:56:11;;;;;;;7.60;2.60;;;15.70;99.90;;;;;;5131240;27;20047;-47
2023/07/17 05:58:38;;;;;;;5.22;2.20;;;15.90;99.90;;;;;;5131242;27;20035;-45
2023/07/17 06:01:04;;;;;;;7.63;2.13;;;15.90;99.90;;;;;;5131332;27;20019;-47
2023/07/17 06:03:29;;;;;;;5.95;2.42;;;15.90;99.90;;;;;;5131105;27;20023;-47
2023/07/17 06:05:55;;;;;;;7.63;2.47;;;16.00;99.90;;;;;;5131021;27;20023;-44
2023/07/17 06:08:20;;;;;;;5.75;2.20;;;16.00;99.90;;;;;;5131082;27;20023;-53
2023/07/17 06:10:46;;;;;;;4.85;2.30;;;16.00;99.90;;;;;;5129696;27;20502;-54
2023/07/17 06:13:13;;;;;;;7.88;2.40;;;16.00;99.90;;;;;;5131132;27;20055;-49
2023/07/17 06:15:39;;;;;;;7.45;2.70;;;15.90;99.90;;;;;;5131014;27;20028;-49
2023/07/17 06:18:04;;;;;;;11.23;3.17;;;16.00;99.90;;;;;;5131257;27;20030;-54
2023/07/17 06:20:30;;;;;;;7.40;2.55;;;16.30;99.90;;;;;;5130933;27;20035;-46
2023/07/17 06:22:56;;;;;;;5.72;2.30;;;16.70;99.90;;;;;;5130882;27;20019;-46
2023/07/17 06:25:21;;;;;;;5.85;2.55;;;17.00;99.90;;;;;;5131076;27;20023;-54
2023/07/17 06:27:47;;;;;;;11.82;3.22;;;17.10;99.90;;;;;;5129497;27;20027;-50
2023/07/17 06:30:13;;;;;;;5.13;2.25;;;17.20;99.90;;;;;;5130928;27;20088;-50
2023/07/17 06:32:39;;;;;;;6.00;2.58;;;17.40;99.90;;;;;;5130983;27;20020;-45
2023/07/17 06:35:07;;;;;;;11.20;2.92;;;17.30;99.90;;;;;;5130978;27;20176;-56
2023/07/17 06:37:33;;;;;;;4.40;2.40;;;17.60;99.90;;;;;;5130780;27;20488;-45
2023/07/17 06:39:59;;;;;;;5.38;2.15;;;18.40;99.90;;;;;;5131150;27;20088;-53
2023/07/17 06:42:24;;;;;;;5.60;2.05;;;19.50;99.90;;;;;;5130753;27;20019;-52
2023/07/17 06:44:50;;;;;;;8.13;2.00;;;20.60;99.90;;;;;;5129513;27;20015;-50
2023/07/17 06:47:15;;;;;;;6.15;2.30;;;21.60;99.90;;;;;;5141176;27;20105;-48
2023/07/17 06:49:41;;;;;;;7.20;2.38;;;22.20;99.90;;;;;;5134331;27;20076;-49
2023/07/17 06:52:07;;;;;;;3.83;1.98;;;22.70;99.90;;;;;;5142379;27;20452;-47
2023/07/17 06:54:33;;;;;;;4.13;1.95;;;22.80;99.90;;;;;;5134055;27;20406;-47
2023/07/17 06:56:59;;;;;;;4.05;2.33;;;22.30;99.90;;;;;;5134373;27;20075;-48
2023/07/17 06:59:28;;;;;;;6.40;1.80;;;21.50;99.90;;;;;;5133992;27;20058;-44
2023/07/17 07:01:54;;;;;;;9.93;2.30;;;20.80;99.90;;;;;;5134243;27;20020;-46
2023/07/17 07:04:20;;;;;;;6.35;2.63;;;20.00;99.90;;;;;;5134097;27;20365;-49
2023/07/17 07:06:46;;;;;;;5.28;2.20;;;19.30;99.90;;;;;;5134031;27;20023;-47
2023/07/17 07:09:12;;;;;;;8.55;2.65;;;18.80;99.90;;;;;;5134046;27;20027;-51
2023/07/17 07:11:37;;;;;;;7.88;2.05;;;18.50;99.90;;;;;;5134297;27;20023;-44
2023/07/17 07:14:03;;;;;;;6.97;1.65;;;18.20;99.90;;;;;;5133961;27;20011;-44
2023/07/17 07:16:28;;;;;;;5.93;2.08;;;18.00;99.90;;;;;;5143029;27;20023;-44
2023/07/17 07:18:54;;;;;;;5.60;1.98;;;18.00;99.90;;;;;;5137768;27;20042;-43
2023/07/17 07:21:20;;;;;;;7.00;2.10;;;18.00;99.90;;;;;;5131449;27;20024;-44
2023/07/17 07:23:46;;;;;;;4.82;2.22;;;18.00;99.90;;;;;;5140443;27;20110;-44
2023/07/17 07:26:11;;;;;;;6.80;2.03;;;17.90;99.90;;;;;;5132851;27;20022;-49
2023/07/17 07:28:37;;;;;;;5.97;2.10;;;17.80;99.90;;;;;;5133595;27;20016;-53
2023/07/17 07:31:03;;;;;;;4.35;1.75;;;17.60;99.90;;;;;;5133532;27;20060;-51
2023/07/17 07:33:29;;;;;;;4.07;1.85;;;17.40;99.90;;;;;;5133254;27;20076;-48
2023/07/17 07:35:54;;;;;;;6.97;2.22;;;17.30;99.90;;;;;;5137297;27;20379;-47
2023/07/17 07:38:20;;;;;;;8.00;1.90;;;17.10;99.90;;;;;;5133335;27;20068;-46
2023/07/17 07:40:46;;;;;;;6.72;2.15;;;17.80;99.90;;;;;;5133259;27;20043;-50
2023/07/17 07:43:11;;;;;;;5.13;2.00;;;18.90;99.90;;;;;;5133051;27;20027;-52
2023/07/17 07:45:37;;;;;;;5.72;1.80;;;19.60;99.90;;;;;;5133208;27;20039;-55
2023/07/17 07:48:03;;;;;;;6.65;2.15;;;20.30;99.90;;;;;;5128182;27;20050;-50
2023/07/17 07:50:28;;;;;;;3.40;1.38;;;21.10;99.90;;;;;;5122151;27;20031;-52
2023/07/17 07:52:55;;;;;;;5.18;1.77;;;22.00;99.90;;;;;;5132721;27;20015;-46
2023/07/17 07:55:21;;;;;;;4.38;1.63;;;22.70;99.90;;;;;;5132799;27;20039;-52
2023/07/17 07:57:48;;;;;;;4.15;1.48;;;23.20;99.90;;;;;;5129590;27;20124;-46
2023/07/17 08:00:14;;;;;;;8.23;1.60;;;22.90;99.90;;;;;;5136387;27;20419;-45
2023/07/17 08:02:40;;;;;;;4.78;1.35;;;22.20;99.90;;;;;;5137168;27;20152;-45
2023/07/17 08:05:07;;;;;;;1.60;0.95;;;21.50;99.90;;;;;;5143611;27;20023;-44
2023/07/17 08:07:33;;;;;;;2.80;1.10;;;20.80;99.90;;;;;;5148601;27;20029;-45
2023/07/17 08:09:58;;;;;;;2.17;1.10;;;20.00;99.90;;;;;;5144688;27;20027;-51
2023/07/17 08:12:24;;;;;;;3.67;1.35;;;19.50;99.90;;;;;;5144349;27;20445;-50
2023/07/17 08:14:50;;;;;;;5.07;1.42;;;19.70;99.90;;;;;;5142687;27;20023;-49
2023/07/17 08:17:16;;;;;;;3.90;1.50;;;20.10;99.90;;;;;;5132428;27;20031;-52
2023/07/17 08:19:42;;;;;;;4.65;1.30;;;20.30;99.90;;;;;;5136800;27;20135;-50
2023/07/17 08:22:07;;;;;;;3.78;1.20;;;20.20;99.90;;;;;;5137594;27;20019;-44
2023/07/17 08:24:33;;;;;;;4.35;1.30;;;19.90;99.90;;;;;;5132554;27;20024;-44
2023/07/17 08:26:58;;;;;;;3.72;1.35;;;19.70;99.90;;;;;;5132349;27;20023;-52
2023/07/17 08:29:24;;;;;;;3.22;1.50;;;19.40;99.90;;;;;;5132437;27;20031;-43
2023/07/17 08:31:50;;;;;;;2.85;1.27;;;19.30;99.90;;;;;;5132285;27;20031;-44
2023/07/17 08:34:17;;;;;;;5.03;1.02;;;19.10;99.90;;;;;;5142029;27;20019;-47
2023/07/17 08:36:43;;;;;;;4.18;1.55;;;19.50;99.90;;;;;;5130303;27;20107;-54
2023/07/17 08:39:09;;;;;;;1.10;0.60;;;20.10;99.90;;;;;;5131945;27;20039;-46
2023/07/17 08:41:36;;;;;;;3.88;1.00;;;20.10;99.90;;;;;;5132240;27;20016;-46
2023/07/17 08:44:02;;;;;;;2.83;0.88;;;20.10;99.90;;;;;;5132221;27;20042;-47
2023/07/17 08:46:29;;;;;;;1.23;0.82;;;20.20;99.90;;;;;;5131894;27;20019;-48
2023/07/17 08:48:56;;;;;;;1.63;0.80;;;20.40;99.90;;;;;;5132105;27;20543;-48
2023/07/17 08:51:23;;;;;;;3.05;1.17;;;20.50;99.90;;;;;;5132025;27;20407;-53
2023/07/17 08:53:52;;;;;;;5.72;1.13;;;20.60;99.90;;;;;;5131828;27;20015;-45
2023/07/17 08:56:18;;;;;;;3.53;1.10;;;20.60;99.90;;;;;;5130555;27;20461;-50
2023/07/17 08:58:45;;;;;;;3.70;0.80;;;20.60;99.90;;;;;;5131661;27;20042;-46
2023/07/17 09:01:12;;;;;;;2.58;1.05;;;20.70;99.90;;;;;;5131819;27;20019;-52
2023/07/17 09:03:38;;;;;;;2.63;1.10;;;21.40;99.90;;;;;;5131619;27;20049;-49
2023/07/17 09:06:04;;;;;;;2.63;0.80;;;22.10;99.90;;;;;;5130113;27;20051;-44
2023/07/17 09:08:30;;;;;;;4.72;0.90;;;22.60;99.90;;;;;;5128822;27;20027;-41
2023/07/17 09:11:04;;;;;;;3.60;0.80;;;22.50;99.90;;;;;;5132394;27;20035;-51
2023/07/17 09:13:40;;;;;;;1.83;0.70;;;22.30;99.90;;;;;;5133303;27;20019;-52
2023/07/17 09:16:15;;;;;;;3.22;0.77;;;21.70;99.90;;;;;;5134188;27;20466;-45
2023/07/17 09:18:41;;;;;;;3.30;0.88;;;21.40;99.90;;;;;;5131642;27;20035;-50
2023/07/17 09:21:07;;;;;;;2.15;0.93;;;21.10;99.90;;;;;;5131332;27;20060;-48
2023/07/17 09:23:53;;;;;;;2.30;0.80;;;21.00;99.90;;;;;;5146393;27;20101;-53
2023/07/17 09:26:22;;;;;;;0.75;0.43;;;21.40;99.90;;;;;;5134890;27;20080;-47
2023/07/17 09:28:56;;;;;;;4.63;0.95;;;21.80;99.90;;;;;;5131424;27;20413;-50
2023/07/17 09:31:31;;;;;;;2.20;0.73;;;22.10;99.90;;;;;;5132290;27;20066;-46
2023/07/17 09:34:00;;;;;;;3.55;0.80;;;21.90;99.90;;;;;;5129248;27;20106;-53
2023/07/17 09:36:26;;;;;;;1.85;0.70;;;22.20;99.90;;;;;;5141727;27;20030;-49
2023/07/17 09:38:54;;;;;;;2.60;0.68;;;22.30;99.90;;;;;;5136852;27;20050;-54
2023/07/17 09:41:23;;;;;;;0.57;0.40;;;22.00;99.90;;;;;;5131083;27;20056;-52
2023/07/17 09:43:53;;;;;;;;;;;21.60;99.90;;;;;;5131701;27;20072;-55
2023/07/17 09:46:19;;;;;;;1.00;0.50;;;21.10;99.90;;;;;;5131244;27;19911;-52
2023/07/17 09:48:45;;;;;;;1.08;0.50;;;20.60;99.90;;;;;;5131129;27;20030;-48
2023/07/17 09:51:12;;;;;;;1.15;0.47;;;20.00;99.90;;;;;;5131266;27;20023;-43
2023/07/17 09:53:40;;;;;;;1.25;0.32;;;19.70;99.90;;;;;;5130902;27;20482;-58
2023/07/17 09:56:11;;;;;;;0.73;0.47;;;19.70;99.90;;;;;;5131238;27;20058;-48
2023/07/17 09:58:39;;;;;;;2.28;0.60;;;20.20;99.90;;;;;;5131154;27;20043;-53
2023/07/17 10:01:07;;;;;;;0.73;0.50;;;20.80;99.90;;;;;;5129598;27;20456;-54
2023/07/17 10:03:33;;;;;;;1.48;0.40;;;20.60;99.90;;;;;;5131087;27;20019;-46
2023/07/17 10:05:59;;;;;;;1.63;0.43;;;20.30;99.90;;;;;;5131486;27;20061;-48
2023/07/17 10:08:28;;;;;;;0.70;0.38;;;20.00;99.90;;;;;;5131042;27;20375;-49
2023/07/17 10:10:54;;;;;;;0.63;0.45;;;19.70;99.90;;;;;;5131190;27;20107;-46
2023/07/17 10:13:21;;;;;;;6.95;0.80;;;19.40;99.90;;;;;;5131017;27;20115;-45
2023/07/17 10:15:47;;;;;;;1.33;0.50;;;19.10;99.90;;;;;;5131087;27;20031;-53
2023/07/17 10:18:13;;;;;;;1.17;0.60;;;18.90;99.90;;;;;;5130839;27;20058;-46
2023/07/17 10:20:39;;;;;;;3.50;1.02;;;18.80;99.90;;;;;;5132471;27;20476;-50
2023/07/17 10:23:26;;;;;;;2.50;0.80;;;18.70;99.90;;;;;;5135054;27;20038;-50
2023/07/17 10:25:52;;;;;;;4.03;0.80;;;18.70;99.90;;;;;;5135237;27;20027;-50
2023/07/17 10:28:37;;;;;;;4.43;0.95;;;18.80;99.90;;;;;;5135132;27;20027;-48
2023/07/17 10:31:20;;;;;;;1.88;0.60;;;18.90;99.90;;;;;;5135211;27;20058;-47
2023/07/17 10:33:51;;;;;;;1.40;0.80;;;19.00;99.90;;;;;;5134864;27;20034;-48
2023/07/17 10:36:18;;;;;;;1.20;0.60;;;19.70;99.90;;;;;;5134924;27;20536;-44
2023/07/17 10:38:51;;;;;;;3.47;0.80;;;20.20;99.90;;;;;;5135137;27;20039;-49
2023/07/17 10:41:17;;;;;;;2.15;0.82;;;20.40;99.90;;;;;;5134889;27;20110;-52
2023/07/17 10:44:01;;;;;;;2.33;0.95;;;20.20;99.90;;;;;;5134637;27;20099;-44
2023/07/17 10:46:31;;;;;;;2.75;0.80;;;20.30;99.90;;;;;;5134969;27;20062;-47
2023/07/17 10:49:08;;;;;;;2.25;0.60;;;20.60;99.90;;;;;;5134614;27;20020;-47
2023/07/17 10:51:34;;;;;;;3.45;0.90;;;20.70;99.90;;;;;;5134571;27;20027;-43
2023/07/17 10:54:00;;;;;;;2.15;0.88;;;21.60;99.90;;;;;;5134306;27;20019;-50
2023/07/17 10:56:26;;;;;;;2.75;0.80;;;21.90;99.90;;;;;;5134467;27;20464;-47
2023/07/17 10:58:52;;;;;;;2.92;0.70;;;22.20;99.90;;;;;;5149320;27;20068;-51
2023/07/17 11:01:18;;;;;;;2.80;1.10;;;22.10;99.90;;;;;;5153684;27;20019;-48
2023/07/17 11:03:47;;;;;;;1.15;0.75;;;22.70;99.90;;;;;;5137014;27;20027;-50
2023/07/17 11:06:15;;;;;;;2.58;0.80;;;23.00;99.90;;;;;;5138800;27;20383;-51
2023/07/17 11:08:42;;;;;;;3.70;0.68;;;23.50;99.90;;;;;;5144734;27;20049;-49
2023/07/17 11:11:08;;;;;;;1.85;0.50;;;23.80;99.90;;;;;;5136895;27;20157;-51
2023/07/17 11:13:35;;;;;;;4.80;0.80;;;24.00;99.90;;;;;;5133761;27;20101;-53
2023/07/17 11:16:10;;;;;;;1.98;0.60;;;24.20;99.90;;;;;;5137293;27;20554;-49
2023/07/17 11:18:57;;;;;;;3.33;1.10;;;24.30;99.90;;;;;;5134678;27;20087;-51
2023/07/17 11:21:25;;;;;;;0.40;0.38;;;24.30;99.90;;;;;;5138277;27;20148;-52
2023/07/17 11:23:51;;;;;;;3.57;0.77;;;24.20;99.90;;;;;;5141077;27;20399;-50
2023/07/17 11:26:25;;;;;;;2.10;0.73;;;24.10;99.90;;;;;;5149765;27;20045;-49
2023/07/17 11:28:53;;;;;;;2.50;0.70;;;24.30;99.90;;;;;;5153660;27;20095;-48
2023/07/17 11:31:20;;;;;;;3.65;0.80;;;24.50;99.90;;;;;;5120842;27;20132;-49
2023/07/17 11:33:50;;;;;;;1.77;0.65;;;24.00;99.90;;;;;;5135648;27;20373;-50
2023/07/17 11:36:16;;;;;;;2.75;0.77;;;23.80;99.90;;;;;;5137791;27;20031;-51
2023/07/17 11:38:41;;;;;;;3.75;0.65;;;23.80;99.90;;;;;;5138907;27;20043;-55
2023/07/17 11:41:07;;;;;;;2.28;0.80;;;23.80;99.90;;;;;;5142119;27;20023;-50
2023/07/17 11:43:35;;;;;;;3.17;0.60;;;24.10;99.90;;;;;;5133474;27;20479;-51
2023/07/17 11:46:04;;;;;;;1.30;0.43;;;23.90;99.90;;;;;;5138095;27;20074;-52
2023/07/17 11:48:31;;;;;;;3.40;0.60;;;24.20;99.90;;;;;;5133031;27;20027;-48
2023/07/17 11:51:00;;;;;;;1.83;0.57;;;24.10;99.90;;;;;;5132820;27;20057;-53
2023/07/17 11:53:27;;;;;;;0.82;0.50;;;24.10;99.90;;;;;;5133011;27;20035;-52
2023/07/17 11:55:53;;;;;;;2.20;0.50;;;24.30;99.90;;;;;;5131829;27;20172;-52
2023/07/17 11:58:26;;;;;;;5.88;1.05;;;23.90;99.90;;;;;;5132953;27;20463;-48
2023/07/17 12:00:55;;;;;;;4.72;0.55;;;23.90;99.90;;;;;;5132715;27;20048;-49
2023/07/17 12:03:22;;;;;;;1.38;0.45;;;23.90;99.90;;;;;;5129887;27;20269;-50
2023/07/17 12:05:48;;;;;;;4.53;0.70;;;24.10;99.90;;;;;;5130914;27;20036;-47
2023/07/17 12:08:14;;;;;;;3.88;0.45;;;24.10;99.90;;;;;;5131161;27;20016;-53
2023/07/17 12:10:40;;;;;;;3.88;1.15;;;24.00;99.90;;;;;;5130938;27;20023;-53
2023/07/17 12:13:07;;;;;;;5.60;0.52;;;23.80;99.90;;;;;;5131058;27;20022;-51
2023/07/17 12:15:32;;;;;;;1.75;0.60;;;23.90;99.90;;;;;;5130883;27;20179;-54
2023/07/17 12:17:58;;;;;;;1.60;0.55;;;24.10;99.90;;;;;;5132481;27;20161;-49
2023/07/17 12:20:25;;;;;;;0.40;0.40;;;23.90;99.90;;;;;;5131103;27;20034;-48
2023/07/17 12:22:52;;;;;;;1.65;0.40;;;23.90;99.90;;;;;;5132778;27;20432;-57
2023/07/17 12:25:18;;;;;;;3.70;0.60;;;23.90;99.90;;;;;;5132614;27;20026;-48
2023/07/17 12:27:45;;;;;;;4.45;0.93;;;23.90;99.90;;;;;;5131064;27;20030;-47
2023/07/17 12:30:12;;;;;;;3.25;0.68;;;23.80;99.90;;;;;;5132773;27;20091;-54
2023/07/17 12:32:38;;;;;;;1.38;0.55;;;23.90;99.90;;;;;;5132326;27;20027;-51
2023/07/17 12:35:05;;;;;;;0.80;0.57;;;23.80;99.90;;;;;;5132440;27;20019;-48
2023/07/17 12:37:31;;;;;;;3.50;0.75;;;23.80;99.90;;;;;;5132130;27;20035;-47
2023/07/17 12:39:58;;;;;;;2.22;0.65;;;23.90;99.90;;;;;;5132275;27;20050;-51
2023/07/17 12:42:24;;;;;;;2.42;0.57;;;23.70;99.90;;;;;;5132199;27;20049;-46
2023/07/17 12:44:50;;;;;;;2.80;0.57;;;23.50;99.90;;;;;;5130451;27;20033;-49